createdAt,value
2018-12-21T00:02:17.894Z,12.53
2018-12-21T00:04:45.440Z,13.27
2018-12-21T00:07:13.183Z,14.20
2018-12-21T00:09:40.750Z,10.53
2018-12-21T00:12:08.296Z,10.33
2018-12-21T00:14:36.482Z,10.27
2018-12-21T00:17:04.060Z,9.63
2018-12-21T00:19:32.193Z,12.23
2018-12-21T00:21:59.731Z,13.50
2018-12-21T00:24:27.694Z,8.20
2018-12-21T00:26:55.480Z,8.70
2018-12-21T00:29:23.322Z,8.07
2018-12-21T00:31:56.701Z,7.50
2018-12-21T00:34:30.348Z,18.40
2018-12-21T00:37:03.887Z,8.63
2018-12-21T00:39:38.054Z,8.20
2018-12-21T00:42:08.028Z,9.57
2018-12-21T00:44:36.139Z,9.13
2018-12-21T00:47:05.909Z,9.17
2018-12-21T00:49:33.909Z,13.00
2018-12-21T00:52:01.782Z,12.33
2018-12-21T00:54:29.774Z,12.77
2018-12-21T00:56:57.406Z,11.77
2018-12-21T00:59:25.986Z,10.07
2018-12-21T01:01:53.539Z,9.87
2018-12-21T01:04:21.642Z,8.87
2018-12-21T01:06:49.162Z,8.13
2018-12-21T01:09:17.027Z,8.20
2018-12-21T01:11:45.032Z,8.43
2018-12-21T01:14:12.855Z,8.40
2018-12-21T01:16:40.745Z,7.87
2018-12-21T01:19:08.611Z,7.77
2018-12-21T01:21:38.935Z,7.00
2018-12-21T01:24:05.731Z,8.50
2018-12-21T01:26:33.497Z,7.83
2018-12-21T01:29:01.038Z,9.10
2018-12-21T01:31:28.890Z,8.00
2018-12-21T01:33:57.031Z,8.60
2018-12-21T01:36:24.670Z,8.27
2018-12-21T01:38:52.316Z,7.60
2018-12-21T01:41:20.034Z,7.40
2018-12-21T01:43:47.569Z,7.50
2018-12-21T01:46:15.104Z,7.03
2018-12-21T01:48:42.831Z,7.20
2018-12-21T01:51:10.721Z,6.90
2018-12-21T01:53:38.492Z,7.97
2018-12-21T01:56:06.219Z,7.30
2018-12-21T01:58:33.835Z,7.80
2018-12-21T02:01:01.469Z,7.00
2018-12-21T02:03:29.218Z,7.30
2018-12-21T02:05:56.859Z,7.73
2018-12-21T02:08:24.487Z,7.90
2018-12-21T02:10:52.590Z,7.57
2018-12-21T02:13:20.130Z,8.03
2018-12-21T02:15:48.054Z,7.00
2018-12-21T02:18:15.615Z,5.93
2018-12-21T02:20:43.166Z,9.87
2018-12-21T02:23:10.694Z,8.30
2018-12-21T02:25:38.619Z,6.70
2018-12-21T02:28:06.347Z,6.00
2018-12-21T02:30:34.275Z,5.13
2018-12-21T02:33:02.162Z,5.13
2018-12-21T02:35:29.698Z,5.27
2018-12-21T02:37:57.727Z,5.43
2018-12-21T02:40:25.304Z,6.67
2018-12-21T02:42:52.992Z,6.30
2018-12-21T02:45:20.829Z,6.80
2018-12-21T02:47:48.541Z,6.17
2018-12-21T02:50:16.087Z,6.67
2018-12-21T02:52:43.841Z,9.43
2018-12-21T02:55:11.539Z,8.33
2018-12-21T02:57:39.322Z,9.57
2018-12-21T03:00:08.419Z,9.77
2018-12-21T03:02:36.339Z,9.73
2018-12-21T03:05:05.837Z,10.03
2018-12-21T03:07:33.535Z,10.13
2018-12-21T03:10:01.130Z,10.33
2018-12-21T03:12:28.805Z,11.20
2018-12-21T03:14:56.647Z,18.67
2018-12-21T03:17:24.549Z,13.53
2018-12-21T03:19:52.129Z,11.63
2018-12-21T03:22:19.806Z,12.03
2018-12-21T03:24:47.514Z,7.47
2018-12-21T03:27:15.259Z,8.97
2018-12-21T03:29:42.989Z,9.23
2018-12-21T03:32:10.558Z,9.90
2018-12-21T03:34:38.319Z,10.33
2018-12-21T03:37:06.043Z,10.60
2018-12-21T03:39:33.679Z,12.40
2018-12-21T03:42:01.214Z,10.43
2018-12-21T03:44:29.697Z,7.30
2018-12-21T03:46:57.267Z,9.40
2018-12-21T03:49:24.795Z,8.33
2018-12-21T03:51:52.678Z,8.73
2018-12-21T03:54:20.547Z,9.13
2018-12-21T03:56:48.086Z,18.53
2018-12-21T03:59:15.616Z,9.80
2018-12-21T04:01:43.289Z,8.07
2018-12-21T04:04:10.866Z,9.50
2018-12-21T04:06:39.015Z,9.83
2018-12-21T04:09:06.999Z,11.00
2018-12-21T04:11:34.547Z,10.30
2018-12-21T04:14:02.120Z,11.00
2018-12-21T04:16:30.063Z,11.73
2018-12-21T04:18:57.763Z,11.17
2018-12-21T04:21:26.558Z,10.40
2018-12-21T04:23:54.273Z,10.37
2018-12-21T04:26:21.807Z,10.80
2018-12-21T04:28:49.487Z,11.03
2018-12-21T04:31:17.792Z,11.83
2018-12-21T04:33:45.516Z,10.57
2018-12-21T04:36:13.339Z,11.53
2018-12-21T04:38:41.112Z,10.83
2018-12-21T04:41:08.839Z,12.53
2018-12-21T04:43:36.554Z,10.50
2018-12-21T04:46:04.824Z,10.37
2018-12-21T04:48:32.643Z,9.43
2018-12-21T04:51:00.174Z,9.27
2018-12-21T04:53:28.032Z,10.57
2018-12-21T04:55:55.831Z,10.43
2018-12-21T04:58:23.741Z,10.60
2018-12-21T05:00:51.992Z,11.60
2018-12-21T05:03:19.654Z,12.17
2018-12-21T05:05:47.227Z,10.33
2018-12-21T05:08:14.883Z,10.43
2018-12-21T05:10:42.862Z,9.00
2018-12-21T05:13:10.726Z,7.67
2018-12-21T05:15:38.295Z,7.93
2018-12-21T05:18:05.825Z,9.03
2018-12-21T05:20:33.363Z,9.47
2018-12-21T05:23:00.944Z,9.13
2018-12-21T05:25:28.547Z,9.47
2018-12-21T05:27:56.230Z,9.23
2018-12-21T05:30:23.923Z,9.17
2018-12-21T05:32:51.550Z,6.40
2018-12-21T05:35:19.086Z,9.30
2018-12-21T05:37:46.982Z,10.00
2018-12-21T05:40:15.148Z,9.90
2018-12-21T05:42:42.837Z,9.60
2018-12-21T05:45:10.762Z,9.33
2018-12-21T05:47:38.324Z,9.63
2018-12-21T05:50:06.231Z,10.80
2018-12-21T05:52:34.173Z,10.27
2018-12-21T05:55:01.954Z,10.47
2018-12-21T05:57:29.502Z,10.80
2018-12-21T05:59:57.449Z,9.67
2018-12-21T06:02:25.191Z,10.27
2018-12-21T06:04:52.839Z,9.70
2018-12-21T06:07:20.732Z,9.23
2018-12-21T06:09:48.516Z,9.37
2018-12-21T06:12:16.141Z,12.50
2018-12-21T06:14:43.711Z,12.37
2018-12-21T06:17:11.346Z,27.53
2018-12-21T06:19:38.895Z,27.17
2018-12-21T06:22:06.482Z,13.60
2018-12-21T06:24:34.328Z,18.83
2018-12-21T06:27:01.861Z,12.17
2018-12-21T06:29:30.028Z,13.70
2018-12-21T06:31:57.666Z,12.30
2018-12-21T06:34:25.370Z,12.50
2018-12-21T06:36:53.074Z,11.47
2018-12-21T06:39:20.904Z,10.63
2018-12-21T06:41:48.718Z,11.57
2018-12-21T06:44:16.415Z,10.80
2018-12-21T06:46:44.242Z,12.40
2018-12-21T06:49:11.779Z,11.87
2018-12-21T06:51:39.731Z,9.80
2018-12-21T06:54:07.439Z,10.10
2018-12-21T06:56:35.114Z,9.20
2018-12-21T06:59:03.415Z,8.10
2018-12-21T07:01:31.226Z,8.70
2018-12-21T07:03:58.773Z,7.90
2018-12-21T07:06:26.843Z,7.83
2018-12-21T07:08:54.369Z,7.03
2018-12-21T07:11:21.939Z,7.87
2018-12-21T07:13:50.235Z,8.43
2018-12-21T07:16:17.771Z,8.27
2018-12-21T07:18:45.494Z,9.17
2018-12-21T07:21:13.435Z,9.17
2018-12-21T07:23:41.224Z,9.47
2018-12-21T07:26:08.759Z,9.93
2018-12-21T07:28:36.341Z,10.67
2018-12-21T07:31:03.905Z,11.37
2018-12-21T07:33:31.694Z,10.10
2018-12-21T07:36:08.129Z,10.57
2018-12-21T07:38:29.623Z,10.43
2018-12-21T07:40:57.328Z,9.50
2018-12-21T07:43:24.980Z,10.50
2018-12-21T07:45:52.710Z,11.80
2018-12-21T07:48:20.246Z,9.80
2018-12-21T07:50:47.828Z,8.93
2018-12-21T07:53:15.583Z,8.10
2018-12-21T07:55:43.268Z,7.77
2018-12-21T07:58:11.154Z,8.20
2018-12-21T08:00:39.025Z,8.47
2018-12-21T08:03:06.688Z,7.87
2018-12-21T08:05:34.262Z,8.47
2018-12-21T08:08:01.801Z,9.27
2018-12-21T08:10:29.343Z,9.40
2018-12-21T08:12:57.202Z,9.27
2018-12-21T08:15:24.979Z,9.83
2018-12-21T08:17:52.798Z,9.73
2018-12-21T08:20:20.373Z,10.60
2018-12-21T08:22:47.977Z,11.40
2018-12-21T08:25:15.606Z,10.60
2018-12-21T08:27:43.195Z,10.50
2018-12-21T08:30:11.238Z,11.00
2018-12-21T08:32:38.967Z,12.23
2018-12-21T08:35:06.555Z,13.97
2018-12-21T08:37:34.559Z,13.30
2018-12-21T08:40:02.390Z,13.03
2018-12-21T08:42:30.298Z,13.23
2018-12-21T08:44:58.119Z,13.43
2018-12-21T08:47:25.903Z,11.57
2018-12-21T08:49:54.281Z,11.97
2018-12-21T08:52:21.835Z,13.00
2018-12-21T08:54:49.485Z,26.10
2018-12-21T08:57:17.267Z,31.03
2018-12-21T08:59:44.802Z,17.87
2018-12-21T09:02:12.333Z,16.87
2018-12-21T09:04:40.224Z,18.73
2018-12-21T09:07:07.913Z,15.40
2018-12-21T09:09:35.724Z,6.60
2018-12-21T09:12:03.417Z,11.60
2018-12-21T09:14:30.947Z,6.23
2018-12-21T09:16:58.920Z,6.40
2018-12-21T09:19:26.635Z,5.43
2018-12-21T09:21:54.575Z,5.27
2018-12-21T09:24:22.327Z,20.47
2018-12-21T09:26:50.236Z,4.17
2018-12-21T09:29:18.045Z,5.83
2018-12-21T09:31:45.896Z,4.60
2018-12-21T09:34:13.618Z,5.83
2018-12-21T09:36:42.935Z,3.50
2018-12-21T09:39:10.777Z,4.47
2018-12-21T09:41:38.519Z,3.80
2018-12-21T09:44:06.243Z,3.43
2018-12-21T09:46:33.799Z,3.90
2018-12-21T09:49:01.512Z,11.63
2018-12-21T09:51:29.485Z,5.47
2018-12-21T09:53:57.102Z,3.80
2018-12-21T09:56:25.038Z,4.27
2018-12-21T09:58:52.886Z,5.57
2018-12-21T10:01:20.498Z,5.07
2018-12-21T10:03:48.312Z,7.10
2018-12-21T10:06:16.076Z,6.17
2018-12-21T10:08:43.942Z,7.03
2018-12-21T10:11:11.850Z,6.50
2018-12-21T10:13:39.454Z,7.27
2018-12-21T10:16:07.399Z,7.00
2018-12-21T10:18:35.779Z,7.13
2018-12-21T10:21:04.004Z,7.30
2018-12-21T10:23:31.895Z,7.53
2018-12-21T10:25:59.465Z,7.70
2018-12-21T10:28:27.446Z,11.03
2018-12-21T10:30:55.323Z,15.80
2018-12-21T10:33:23.174Z,14.43
2018-12-21T10:35:50.986Z,15.37
2018-12-21T10:38:19.193Z,14.23
2018-12-21T10:40:46.780Z,14.17
2018-12-21T10:43:14.314Z,14.37
2018-12-21T10:45:42.138Z,13.47
2018-12-21T10:48:10.255Z,14.03
2018-12-21T10:50:37.813Z,18.20
2018-12-21T10:53:05.814Z,16.13
2018-12-21T10:55:33.433Z,11.47
2018-12-21T10:58:01.237Z,6.80
2018-12-21T11:00:29.080Z,7.33
2018-12-21T11:02:57.165Z,3.97
2018-12-21T11:05:25.026Z,3.57
2018-12-21T11:07:52.980Z,4.07
2018-12-21T11:10:20.555Z,2.90
2018-12-21T11:12:48.409Z,2.07
2018-12-21T11:15:16.296Z,2.60
2018-12-21T11:17:44.174Z,2.97
2018-12-21T11:20:11.855Z,2.20
2018-12-21T11:22:39.631Z,2.77
2018-12-21T11:25:10.002Z,10.37
2018-12-21T11:27:37.690Z,12.73
2018-12-21T11:30:08.135Z,12.60
2018-12-21T11:32:36.658Z,11.83
2018-12-21T11:35:04.803Z,12.33
2018-12-21T11:37:32.798Z,15.87
2018-12-21T11:40:00.530Z,13.17
2018-12-21T11:42:28.188Z,10.77
2018-12-21T11:44:55.784Z,11.13
2018-12-21T11:47:23.531Z,10.00
2018-12-21T11:49:51.347Z,13.37
2018-12-21T11:52:18.893Z,9.73
2018-12-21T11:54:46.933Z,10.77
2018-12-21T11:57:14.494Z,10.90
2018-12-21T11:59:44.966Z,28.10
2018-12-21T12:02:19.293Z,11.50
2018-12-21T12:04:58.911Z,12.27
2018-12-21T12:07:26.911Z,11.83
2018-12-21T12:09:54.836Z,12.90
2018-12-21T12:12:22.467Z,21.60
2018-12-21T12:14:50.311Z,11.83
2018-12-21T12:17:18.344Z,12.40
2018-12-21T12:19:46.082Z,10.70
2018-12-21T12:22:13.821Z,10.80
2018-12-21T12:24:41.371Z,10.97
2018-12-21T12:27:09.129Z,9.73
2018-12-21T12:29:36.719Z,11.30
2018-12-21T12:32:04.253Z,8.93
2018-12-21T12:34:32.137Z,8.17
2018-12-21T12:36:59.726Z,8.83
2018-12-21T12:39:27.459Z,3.60
2018-12-21T12:41:55.121Z,3.97
2018-12-21T12:44:22.907Z,3.40
2018-12-21T12:46:50.628Z,2.60
2018-12-21T12:49:18.327Z,4.00
2018-12-21T12:51:46.605Z,5.90
2018-12-21T12:54:14.658Z,7.57
2018-12-21T12:56:42.310Z,7.43
2018-12-21T12:59:09.913Z,3.50
2018-12-21T13:01:38.058Z,9.23
2018-12-21T13:04:06.135Z,4.17
2018-12-21T13:06:34.257Z,4.10
2018-12-21T13:09:01.798Z,8.30
2018-12-21T13:11:29.487Z,5.93
2018-12-21T13:13:57.259Z,2.90
2018-12-21T13:16:25.030Z,2.87
2018-12-21T13:18:52.899Z,3.10
2018-12-21T13:21:20.807Z,1.93
2018-12-21T13:23:48.706Z,3.00
2018-12-21T13:26:16.281Z,4.00
2018-12-21T13:28:44.227Z,2.33
2018-12-21T13:31:11.785Z,4.57
2018-12-21T13:33:40.091Z,6.50
2018-12-21T13:36:07.800Z,3.03
2018-12-21T13:38:35.598Z,2.90
2018-12-21T13:41:03.311Z,2.87
2018-12-21T13:43:31.536Z,2.93
2018-12-21T13:45:59.073Z,6.40
2018-12-21T13:48:26.608Z,3.23
2018-12-21T13:50:54.197Z,3.20
2018-12-21T13:53:21.825Z,3.07
2018-12-21T13:55:49.385Z,5.53
2018-12-21T13:58:17.411Z,2.87
2018-12-21T14:00:45.154Z,6.80
2018-12-21T14:03:13.018Z,3.60
2018-12-21T14:05:40.780Z,6.37
2018-12-21T14:08:08.326Z,17.13
2018-12-21T14:10:35.874Z,17.80
2018-12-21T14:13:03.483Z,7.53
2018-12-21T14:15:31.551Z,6.80
2018-12-21T14:17:59.622Z,5.33
2018-12-21T14:20:27.206Z,6.83
2018-12-21T14:22:54.848Z,7.37
2018-12-21T14:25:28.856Z,7.50
2018-12-21T14:27:53.365Z,10.20
2018-12-21T14:30:21.391Z,13.10
2018-12-21T14:32:48.967Z,10.97
2018-12-21T14:35:16.542Z,9.07
2018-12-21T14:37:44.082Z,7.67
2018-12-21T14:40:11.657Z,5.80
2018-12-21T14:42:39.592Z,4.00
2018-12-21T14:45:07.265Z,5.47
2018-12-21T14:47:35.440Z,9.10
2018-12-21T14:50:03.871Z,11.97
2018-12-21T14:52:31.651Z,16.87
2018-12-21T14:54:59.211Z,20.40
2018-12-21T14:57:26.999Z,19.97
2018-12-21T14:59:54.947Z,30.80
2018-12-21T15:02:23.047Z,39.07
2018-12-21T15:04:51.011Z,20.93
2018-12-21T15:07:18.981Z,8.60
2018-12-21T15:09:46.743Z,11.33
2018-12-21T15:12:14.782Z,18.90
2018-12-21T15:14:42.396Z,11.07
2018-12-21T15:17:09.936Z,20.03
2018-12-21T15:19:37.533Z,16.07
2018-12-21T15:22:05.070Z,14.43
2018-12-21T15:24:32.600Z,4.03
2018-12-21T15:27:00.466Z,3.50
2018-12-21T15:29:28.431Z,4.97
2018-12-21T15:31:57.161Z,6.57
2018-12-21T15:34:24.738Z,5.77
2018-12-21T15:36:52.549Z,4.27
2018-12-21T15:39:20.312Z,2.10
2018-12-21T15:41:48.090Z,2.90
2018-12-21T15:44:17.167Z,2.80
2018-12-21T15:46:44.934Z,3.10
2018-12-21T15:49:12.513Z,3.10
2018-12-21T15:51:40.268Z,2.20
2018-12-21T15:54:08.107Z,3.37
2018-12-21T15:56:36.343Z,2.30
2018-12-21T15:59:04.266Z,4.40
2018-12-21T16:01:36.890Z,3.50
2018-12-21T16:04:01.618Z,3.30
2018-12-21T16:06:29.196Z,3.50
2018-12-21T16:08:56.902Z,6.00
2018-12-21T16:11:25.131Z,35.40
2018-12-21T16:13:52.797Z,17.63
2018-12-21T16:16:21.056Z,10.17
2018-12-21T16:18:48.625Z,17.27
2018-12-21T16:21:17.658Z,34.20
2018-12-21T16:23:45.470Z,15.73
2018-12-21T16:26:13.212Z,19.17
2018-12-21T16:28:42.137Z,12.77
2018-12-21T16:31:09.924Z,25.00
2018-12-21T16:33:38.532Z,21.73
2018-12-21T16:36:06.326Z,11.43
2018-12-21T16:38:34.747Z,7.47
2018-12-21T16:41:02.829Z,6.53
2018-12-21T16:43:30.407Z,6.17
2018-12-21T16:45:58.103Z,8.30
2018-12-21T16:48:28.274Z,27.43
2018-12-21T16:50:56.509Z,20.63
2018-12-21T16:53:24.081Z,26.93
2018-12-21T16:55:51.662Z,25.13
2018-12-21T16:58:19.476Z,28.00
2018-12-21T17:00:47.019Z,40.03
2018-12-21T17:03:15.758Z,14.13
2018-12-21T17:05:45.669Z,18.73
2018-12-21T17:08:13.445Z,13.40
2018-12-21T17:10:41.055Z,15.17
2018-12-21T17:13:08.612Z,7.53
2018-12-21T17:15:36.583Z,14.77
2018-12-21T17:18:04.670Z,12.13
2018-12-21T17:20:32.202Z,9.10
2018-12-21T17:23:00.807Z,6.53
2018-12-21T17:25:29.564Z,6.27
2018-12-21T17:27:57.335Z,8.07
2018-12-21T17:30:25.218Z,6.73
2018-12-21T17:32:52.987Z,7.87
2018-12-21T17:35:20.912Z,11.83
2018-12-21T17:37:48.669Z,13.53
2018-12-21T17:40:16.245Z,5.40
2018-12-21T17:42:44.423Z,10.03
2018-12-21T17:45:12.623Z,9.87
2018-12-21T17:47:40.900Z,10.20
2018-12-21T17:50:08.603Z,10.43
2018-12-21T17:52:36.499Z,8.40
2018-12-21T17:55:05.192Z,6.30
2018-12-21T17:57:32.750Z,7.27
2018-12-21T18:00:00.519Z,8.63
2018-12-21T18:02:28.895Z,3.53
2018-12-21T18:04:56.438Z,7.10
2018-12-21T18:07:26.080Z,14.87
2018-12-21T18:09:53.669Z,5.40
2018-12-21T18:12:22.000Z,3.03
2018-12-21T18:14:49.965Z,4.20
2018-12-21T18:17:17.566Z,3.50
2018-12-21T18:19:46.272Z,5.10
2018-12-21T18:22:14.149Z,2.70
2018-12-21T18:24:42.209Z,3.97
2018-12-21T18:27:09.773Z,5.10
2018-12-21T18:29:37.546Z,4.77
2018-12-21T18:32:05.762Z,7.63
2018-12-21T18:34:36.347Z,7.63
2018-12-21T18:37:04.336Z,9.47
2018-12-21T18:39:32.450Z,6.60
2018-12-21T18:42:00.119Z,11.37
2018-12-21T18:44:29.538Z,5.60
2018-12-21T18:46:58.457Z,3.23
2018-12-21T18:49:26.752Z,4.20
2018-12-21T18:51:55.625Z,6.17
2018-12-21T18:54:24.919Z,5.93
2018-12-21T18:56:54.085Z,5.40
2018-12-21T18:59:23.377Z,6.17
2018-12-21T19:01:50.970Z,2.97
2018-12-21T19:04:18.841Z,3.67
2018-12-21T19:06:46.397Z,3.50
2018-12-21T19:09:14.869Z,10.30
2018-12-21T19:11:44.077Z,12.60
2018-12-21T19:14:13.271Z,25.67
2018-12-21T19:16:41.544Z,11.07
2018-12-21T19:19:09.604Z,9.67
2018-12-21T19:21:37.921Z,5.13
2018-12-21T19:24:05.859Z,5.27
2018-12-21T19:26:33.772Z,7.03
2018-12-21T19:29:01.339Z,10.77
2018-12-21T19:31:29.878Z,9.37
2018-12-21T19:33:58.242Z,8.37
2018-12-21T19:36:25.818Z,7.03
2018-12-21T19:38:54.282Z,6.50
2018-12-21T19:41:21.873Z,4.00
2018-12-21T19:43:49.431Z,3.43
2018-12-21T19:46:17.151Z,6.77
2018-12-21T19:48:44.694Z,9.73
2018-12-21T19:51:12.237Z,25.63
2018-12-21T19:53:39.878Z,6.97
2018-12-21T19:56:12.009Z,41.00
2018-12-21T19:58:39.578Z,11.27
2018-12-21T20:01:07.198Z,3.80
2018-12-21T20:03:34.738Z,4.20
2018-12-21T20:06:02.620Z,11.40
2018-12-21T20:08:30.212Z,4.63
2018-12-21T20:10:58.375Z,7.53
2018-12-21T20:13:26.145Z,4.20
2018-12-21T20:15:55.752Z,4.30
2018-12-21T20:18:23.816Z,5.47
2018-12-21T20:20:51.389Z,4.67
2018-12-21T20:23:19.134Z,3.73
2018-12-21T20:25:46.800Z,4.13
2018-12-21T20:28:14.660Z,3.63
2018-12-21T20:30:44.969Z,3.10
2018-12-21T20:33:12.776Z,4.10
2018-12-21T20:35:40.433Z,3.93
2018-12-21T20:38:08.147Z,4.80
2018-12-21T20:40:36.492Z,4.03
2018-12-21T20:43:04.619Z,7.90
2018-12-21T20:45:32.586Z,12.00
2018-12-21T20:48:00.326Z,5.50
2018-12-21T20:50:27.866Z,6.30
2018-12-21T20:52:55.613Z,20.50
2018-12-21T20:55:23.540Z,15.67
2018-12-21T20:57:51.466Z,6.80
2018-12-21T21:00:19.580Z,20.73
2018-12-21T21:02:47.439Z,14.43
2018-12-21T21:05:15.166Z,14.20
2018-12-21T21:07:42.761Z,15.50
2018-12-21T21:10:11.782Z,10.90
2018-12-21T21:12:39.535Z,15.43
2018-12-21T21:15:10.552Z,11.80
2018-12-21T21:17:38.543Z,8.13
2018-12-21T21:20:10.566Z,19.50
2018-12-21T21:22:38.450Z,8.77
2018-12-21T21:25:06.916Z,10.47
2018-12-21T21:27:34.602Z,7.80
2018-12-21T21:30:02.506Z,7.23
2018-12-21T21:32:30.047Z,7.33
2018-12-21T21:34:58.087Z,16.50
2018-12-21T21:37:25.748Z,9.67
2018-12-21T21:39:53.290Z,6.63
2018-12-21T21:42:21.318Z,10.40
2018-12-21T21:44:49.168Z,11.30
2018-12-21T21:47:17.109Z,13.43
2018-12-21T21:49:45.037Z,6.20
2018-12-21T21:52:12.937Z,5.10
2018-12-21T21:54:40.542Z,4.60
2018-12-21T21:57:08.138Z,3.93
2018-12-21T21:59:35.673Z,4.30
2018-12-21T22:02:03.516Z,4.63
2018-12-21T22:04:31.428Z,5.60
2018-12-21T22:06:59.477Z,15.23
2018-12-21T22:09:27.356Z,14.43
2018-12-21T22:11:55.401Z,6.57
2018-12-21T22:14:23.120Z,7.07
2018-12-21T22:16:50.818Z,7.63
2018-12-21T22:19:18.793Z,25.87
2018-12-21T22:21:47.231Z,6.63
2018-12-21T22:24:15.077Z,11.43
2018-12-21T22:26:43.014Z,9.30
2018-12-21T22:29:11.007Z,15.47
2018-12-21T22:31:38.551Z,7.20
2018-12-21T22:34:06.386Z,3.33
2018-12-21T22:36:34.114Z,3.33
2018-12-21T22:39:03.826Z,3.33
2018-12-21T22:41:32.018Z,1.40
2018-12-21T22:43:59.570Z,5.83
2018-12-21T22:46:27.161Z,2.50
2018-12-21T22:48:55.070Z,1.50
2018-12-21T22:51:22.693Z,2.27
2018-12-21T22:53:50.242Z,2.10
2018-12-21T22:56:18.052Z,3.07
2018-12-21T22:58:45.678Z,3.23
2018-12-21T23:01:13.490Z,1.40
2018-12-21T23:03:41.144Z,2.53
2018-12-21T23:06:08.677Z,3.40
2018-12-21T23:08:36.354Z,1.60
2018-12-21T23:11:04.425Z,1.27
2018-12-21T23:13:32.043Z,2.20
2018-12-21T23:15:59.954Z,5.50
2018-12-21T23:18:27.787Z,1.20
2018-12-21T23:20:55.429Z,3.90
2018-12-21T23:23:23.085Z,6.27
2018-12-21T23:25:50.666Z,6.17
2018-12-21T23:28:18.561Z,1.70
2018-12-21T23:30:46.098Z,1.93
2018-12-21T23:33:13.767Z,2.70
2018-12-21T23:35:41.444Z,4.33
2018-12-21T23:38:08.998Z,2.27
2018-12-21T23:40:36.759Z,2.30
2018-12-21T23:43:04.557Z,2.83
2018-12-21T23:45:32.397Z,6.10
2018-12-21T23:48:00.295Z,3.50
2018-12-21T23:50:28.097Z,3.20
2018-12-21T23:52:55.650Z,1.30
2018-12-21T23:55:23.498Z,10.20
2018-12-21T23:57:51.315Z,3.40
